createdAt,value
2023-04-02T00:01:38.734Z,36.70
2023-04-02T00:04:12.749Z,36.58
2023-04-02T00:06:40.545Z,36.10
2023-04-02T00:09:37.727Z,39.92
2023-04-02T00:12:18.484Z,40.95
2023-04-02T00:14:49.597Z,47.30
2023-04-02T00:17:16.799Z,50.13
2023-04-02T00:19:48.628Z,49.92
2023-04-02T00:22:20.389Z,55.05
2023-04-02T00:24:50.983Z,49.70
2023-04-02T00:27:18.020Z,50.47
2023-04-02T00:29:52.010Z,48.85
2023-04-02T00:32:24.841Z,46.80
2023-04-02T00:34:52.133Z,40.70
2023-04-02T00:37:21.810Z,40.00
2023-04-02T00:39:48.856Z,35.92
2023-04-02T00:42:16.305Z,39.70
2023-04-02T00:44:45.607Z,40.63
2023-04-02T00:47:19.199Z,46.67
2023-04-02T00:49:47.390Z,44.63
2023-04-02T00:52:17.490Z,37.67
2023-04-02T00:54:49.435Z,38.00
2023-04-02T00:57:19.700Z,36.90
2023-04-02T00:59:54.669Z,34.33
2023-04-02T01:04:53.697Z,32.65
2023-04-02T01:07:34.096Z,31.73
2023-04-02T01:10:22.238Z,33.67
2023-04-02T01:12:57.344Z,32.30
2023-04-02T01:18:10.218Z,25.70
2023-04-02T01:21:02.274Z,20.65
2023-04-02T01:23:35.542Z,22.98
2023-04-02T01:26:14.084Z,22.10
2023-04-02T01:29:02.776Z,21.85
2023-04-02T01:31:31.036Z,22.25
2023-04-02T01:33:58.064Z,22.05
2023-04-02T01:36:31.236Z,22.83
2023-04-02T01:39:05.885Z,23.42
2023-04-02T01:41:38.445Z,21.52
2023-04-02T01:44:09.634Z,21.25
2023-04-02T01:46:41.414Z,24.15
2023-04-02T01:49:13.679Z,19.10
2023-04-02T01:51:43.622Z,18.38
2023-04-02T01:54:12.656Z,17.55
2023-04-02T01:56:47.924Z,15.93
2023-04-02T01:59:18.505Z,17.33
2023-04-02T02:01:57.897Z,18.52
2023-04-02T02:04:25.688Z,16.02
2023-04-02T02:06:59.848Z,17.35
2023-04-02T02:09:30.451Z,15.20
2023-04-02T02:11:58.669Z,15.60
2023-04-02T02:14:34.829Z,16.10
2023-04-02T02:17:02.937Z,18.25
2023-04-02T02:19:40.869Z,17.05
2023-04-02T02:22:12.363Z,17.65
2023-04-02T02:24:39.651Z,18.67
2023-04-02T02:27:36.317Z,20.35
2023-04-02T02:30:12.105Z,20.23
2023-04-02T02:32:45.813Z,20.98
2023-04-02T02:35:18.429Z,21.63
2023-04-02T02:37:51.007Z,20.08
2023-04-02T02:40:23.959Z,20.67
2023-04-02T02:42:55.196Z,23.88
2023-04-02T02:45:27.681Z,23.77
2023-04-02T02:47:56.161Z,23.75
2023-04-02T02:50:26.767Z,23.50
2023-04-02T02:52:57.097Z,22.90
2023-04-02T02:55:27.547Z,24.60
2023-04-02T02:57:58.360Z,25.05
2023-04-02T03:00:27.236Z,24.27
2023-04-02T03:02:56.607Z,23.38
2023-04-02T03:05:26.575Z,24.92
2023-04-02T03:07:57.198Z,24.15
2023-04-02T03:10:35.991Z,22.20
2023-04-02T03:13:09.888Z,22.90
2023-04-02T03:15:42.293Z,21.80
2023-04-02T03:18:16.774Z,20.88
2023-04-02T03:20:48.613Z,23.77
2023-04-02T03:23:22.404Z,26.63
2023-04-02T03:25:57.236Z,25.83
2023-04-02T03:28:29.189Z,27.85
2023-04-02T03:31:02.853Z,28.38
2023-04-02T03:33:33.971Z,30.00
2023-04-02T03:36:05.006Z,29.25
2023-04-02T03:38:34.924Z,29.35
2023-04-02T03:41:06.437Z,33.13
2023-04-02T03:43:37.185Z,33.30
2023-04-02T03:46:25.166Z,29.88
2023-04-02T03:48:54.563Z,31.73
2023-04-02T03:51:26.620Z,27.60
2023-04-02T03:53:53.806Z,28.77
2023-04-02T03:56:26.854Z,28.75
2023-04-02T03:59:04.089Z,27.30
2023-04-02T04:01:37.640Z,29.55
2023-04-02T04:04:09.283Z,28.50
2023-04-02T04:06:41.319Z,30.17
2023-04-02T04:09:11.335Z,35.92
2023-04-02T04:11:43.993Z,34.58
2023-04-02T04:14:16.655Z,34.05
2023-04-02T04:16:49.510Z,38.80
2023-04-02T04:19:21.275Z,38.05
2023-04-02T04:21:48.434Z,38.70
2023-04-02T04:24:19.336Z,41.50
2023-04-02T04:26:52.516Z,37.70
2023-04-02T04:29:33.178Z,42.10
2023-04-02T04:32:19.841Z,36.65
2023-04-02T04:34:49.227Z,39.45
2023-04-02T04:37:19.982Z,42.03
2023-04-02T04:39:51.007Z,38.80
2023-04-02T04:42:22.709Z,39.65
2023-04-02T04:44:55.391Z,39.78
2023-04-02T04:47:29.342Z,39.42
2023-04-02T04:50:00.857Z,39.63
2023-04-02T04:52:33.393Z,37.95
2023-04-02T04:55:00.973Z,35.67
2023-04-02T04:57:33.266Z,40.63
2023-04-02T05:00:06.915Z,39.50
2023-04-02T05:02:42.026Z,38.72
2023-04-02T05:05:19.143Z,39.80
2023-04-02T05:07:51.269Z,38.15
2023-04-02T05:10:25.348Z,38.13
2023-04-02T05:12:56.294Z,38.07
2023-04-02T05:15:27.878Z,36.92
2023-04-02T05:18:11.150Z,37.25
2023-04-02T05:20:44.144Z,40.45
2023-04-02T05:23:17.702Z,39.47
2023-04-02T05:25:54.158Z,41.78
2023-04-02T05:28:29.989Z,46.83
2023-04-02T05:31:02.296Z,46.30
2023-04-02T05:33:32.906Z,44.30
2023-04-02T05:36:02.883Z,43.67
2023-04-02T05:38:34.145Z,43.28
2023-04-02T05:41:04.992Z,45.20
2023-04-02T05:43:33.822Z,44.17
2023-04-02T05:46:05.200Z,41.80
2023-04-02T05:48:37.437Z,46.75
2023-04-02T05:51:09.163Z,46.35
2023-04-02T05:53:40.014Z,43.50
2023-04-02T05:56:13.724Z,46.80
2023-04-02T05:58:46.203Z,44.50
2023-04-02T06:01:22.759Z,46.35
2023-04-02T06:03:59.576Z,50.00
2023-04-02T06:06:42.685Z,44.65
2023-04-02T06:09:14.025Z,42.08
2023-04-02T06:11:45.204Z,41.70
2023-04-02T06:14:13.948Z,39.22
2023-04-02T06:16:41.796Z,36.85
2023-04-02T06:19:18.423Z,35.05
2023-04-02T06:21:46.038Z,37.05
2023-04-02T06:24:18.910Z,35.92
2023-04-02T06:26:51.511Z,36.35
2023-04-02T06:29:26.408Z,35.67
2023-04-02T06:34:25.453Z,35.33
2023-04-02T06:36:56.097Z,31.98
2023-04-02T06:39:25.091Z,30.63
2023-04-02T06:42:01.536Z,29.85
2023-04-02T06:44:32.229Z,32.90
2023-04-02T06:47:02.807Z,31.35
2023-04-02T06:49:37.424Z,34.58
2023-04-02T06:52:11.088Z,30.45
2023-04-02T06:54:38.009Z,35.13
2023-04-02T06:57:06.741Z,31.20
2023-04-02T06:59:33.700Z,38.67
2023-04-02T07:02:04.255Z,35.88
2023-04-02T07:04:34.189Z,37.70
2023-04-02T07:07:01.160Z,39.80
2023-04-02T07:09:28.049Z,38.63
2023-04-02T07:11:55.145Z,42.17
2023-04-02T07:14:22.072Z,40.17
2023-04-02T07:16:48.989Z,40.53
2023-04-02T07:19:18.566Z,38.03
2023-04-02T07:21:46.883Z,40.33
2023-04-02T07:24:13.817Z,37.25
2023-04-02T07:26:41.151Z,40.67
2023-04-02T07:29:08.822Z,32.20
2023-04-02T07:31:38.044Z,30.33
2023-04-02T07:34:06.649Z,28.05
2023-04-02T07:36:33.714Z,26.13
2023-04-02T07:39:03.401Z,23.40
2023-04-02T07:41:30.667Z,20.95
2023-04-02T07:43:58.143Z,23.50
2023-04-02T07:46:25.177Z,21.83
2023-04-02T07:48:52.110Z,23.27
2023-04-02T07:51:20.662Z,22.42
2023-04-02T07:53:47.873Z,24.73
2023-04-02T07:56:17.743Z,25.15
2023-04-02T07:58:45.134Z,27.52
2023-04-02T08:01:18.004Z,30.67
2023-04-02T08:03:45.333Z,29.27
2023-04-02T08:06:12.416Z,30.23
2023-04-02T08:08:39.961Z,29.55
2023-04-02T08:11:07.577Z,29.55
2023-04-02T08:13:35.923Z,30.42
2023-04-02T08:16:03.928Z,28.85
2023-04-02T08:18:31.466Z,29.40
2023-04-02T08:20:59.018Z,26.08
2023-04-02T08:23:27.051Z,23.75
2023-04-02T08:25:54.765Z,24.75
2023-04-02T08:28:22.506Z,28.35
2023-04-02T08:30:51.015Z,25.27
2023-04-02T08:33:18.481Z,28.83
2023-04-02T08:35:45.573Z,25.60
2023-04-02T08:38:14.117Z,29.77
2023-04-02T08:40:42.996Z,31.42
2023-04-02T08:43:51.568Z,27.83
2023-04-02T08:46:26.511Z,30.98
2023-04-02T08:51:25.099Z,33.35
2023-04-02T08:53:55.179Z,34.45
2023-04-02T08:56:30.621Z,31.42
2023-04-02T08:59:00.679Z,32.33
2023-04-02T09:01:40.057Z,32.50
2023-04-02T09:04:15.392Z,30.80
2023-04-02T09:06:43.105Z,29.75
2023-04-02T09:09:12.801Z,35.08
2023-04-02T09:11:48.129Z,31.10
2023-04-02T09:14:19.364Z,33.60
2023-04-02T09:16:51.004Z,30.65
2023-04-02T09:19:21.713Z,33.63
2023-04-02T09:22:00.569Z,34.83
2023-04-02T09:24:27.582Z,32.65
2023-04-02T09:26:54.484Z,32.70
2023-04-02T09:29:42.700Z,37.17
2023-04-02T09:32:48.466Z,36.05
2023-04-02T09:35:25.980Z,36.67
2023-04-02T09:38:18.310Z,35.33
2023-04-02T09:40:49.184Z,37.08
2023-04-02T09:43:18.002Z,36.55
2023-04-02T09:45:55.109Z,36.13
2023-04-02T09:48:26.136Z,33.08
2023-04-02T09:51:05.550Z,32.53
2023-04-02T09:53:35.386Z,30.98
2023-04-02T09:56:10.218Z,31.58
2023-04-02T09:58:37.553Z,33.03
2023-04-02T10:01:05.086Z,29.00
2023-04-02T10:03:34.125Z,33.05
2023-04-02T10:06:08.738Z,31.08
2023-04-02T10:08:36.796Z,35.05
2023-04-02T10:11:07.742Z,32.20
2023-04-02T10:13:46.429Z,35.42
2023-04-02T10:16:19.450Z,36.05
2023-04-02T10:18:50.332Z,37.63
2023-04-02T10:21:23.420Z,33.10
2023-04-02T10:23:50.634Z,31.83
2023-04-02T10:26:35.653Z,32.00
2023-04-02T10:29:30.918Z,28.63
2023-04-02T10:32:03.838Z,31.40
2023-04-02T10:34:43.238Z,27.58
2023-04-02T10:37:35.142Z,26.42
2023-04-02T10:40:09.307Z,21.52
2023-04-02T10:42:40.518Z,21.85
2023-04-02T10:45:20.450Z,25.02
2023-04-02T10:47:53.181Z,22.70
2023-04-02T10:50:29.769Z,20.55
2023-04-02T10:53:10.875Z,21.80
2023-04-02T10:55:43.587Z,20.90
2023-04-02T10:58:20.591Z,16.40
2023-04-02T11:00:49.028Z,19.35
2023-04-02T11:03:22.682Z,16.65
2023-04-02T11:05:51.753Z,16.20
2023-04-02T11:08:24.445Z,16.40
2023-04-02T11:10:57.087Z,16.92
2023-04-02T11:13:28.436Z,13.57
2023-04-02T11:15:55.718Z,15.25
2023-04-02T11:18:26.089Z,14.35
2023-04-02T11:21:01.784Z,13.93
2023-04-02T11:23:33.733Z,13.05
2023-04-02T11:26:36.745Z,14.45
2023-04-02T11:29:20.238Z,13.10
2023-04-02T11:31:51.523Z,13.60
2023-04-02T11:35:05.166Z,12.15
2023-04-02T11:37:36.741Z,9.02
2023-04-02T11:40:22.697Z,10.30
2023-04-02T11:42:50.559Z,11.07
2023-04-02T11:45:53.342Z,11.43
2023-04-02T11:48:28.959Z,10.32
2023-04-02T11:50:56.274Z,11.48
2023-04-02T11:53:33.030Z,12.43
2023-04-02T11:56:09.827Z,10.32
2023-04-02T11:58:54.278Z,10.05
2023-04-02T12:01:45.350Z,10.53
2023-04-02T12:04:34.927Z,7.63
2023-04-02T12:07:23.242Z,10.95
2023-04-02T12:09:52.842Z,10.45
2023-04-02T12:12:27.141Z,11.05
2023-04-02T12:14:55.538Z,9.57
2023-04-02T12:17:28.998Z,10.43
2023-04-02T12:19:58.156Z,9.52
2023-04-02T12:22:27.406Z,9.52
2023-04-02T12:24:57.165Z,12.07
2023-04-02T12:27:27.728Z,11.50
2023-04-02T12:29:55.703Z,10.70
2023-04-02T12:32:29.779Z,8.70
2023-04-02T12:34:58.831Z,12.13
2023-04-02T12:37:28.567Z,9.40
2023-04-02T12:39:57.561Z,7.75
2023-04-02T12:42:32.082Z,9.98
2023-04-02T12:44:59.463Z,9.90
2023-04-02T12:47:27.285Z,13.05
2023-04-02T12:49:56.680Z,15.57
2023-04-02T12:52:25.805Z,12.82
2023-04-02T12:54:54.629Z,8.23
2023-04-02T12:57:34.116Z,10.85
2023-04-02T13:00:04.333Z,14.38
2023-04-02T13:02:32.580Z,9.55
2023-04-02T13:05:01.553Z,10.65
2023-04-02T13:07:30.885Z,8.88
2023-04-02T13:10:00.213Z,11.00
2023-04-02T13:12:32.518Z,9.90
2023-04-02T13:15:03.713Z,8.73
2023-04-02T13:17:41.990Z,6.63
2023-04-02T13:20:28.412Z,5.78
2023-04-02T13:22:55.683Z,9.27
2023-04-02T13:25:28.396Z,11.15
2023-04-02T13:27:55.517Z,8.95
2023-04-02T13:30:25.654Z,8.98
2023-04-02T13:32:53.179Z,7.07
2023-04-02T13:35:20.257Z,7.07
2023-04-02T13:37:47.355Z,7.35
2023-04-02T13:40:15.734Z,6.93
2023-04-02T13:42:44.235Z,8.02
2023-04-02T13:45:25.754Z,5.43
2023-04-02T13:47:52.865Z,6.40
2023-04-02T13:50:22.769Z,8.57
2023-04-02T13:52:51.463Z,7.50
2023-04-02T13:55:19.822Z,6.95
2023-04-02T13:57:46.851Z,7.57
2023-04-02T14:00:14.770Z,8.75
2023-04-02T14:02:47.417Z,7.35
2023-04-02T14:05:26.623Z,7.20
2023-04-02T14:08:01.448Z,6.35
2023-04-02T14:10:42.972Z,5.70
2023-04-02T14:13:26.669Z,7.43
2023-04-02T14:16:04.529Z,5.90
2023-04-02T14:18:54.492Z,7.82
2023-04-02T14:21:30.586Z,6.47
2023-04-02T14:24:10.483Z,7.28
2023-04-02T14:26:48.170Z,6.57
2023-04-02T14:29:20.249Z,7.80
2023-04-02T14:31:55.249Z,6.20
2023-04-02T14:37:04.973Z,6.93
2023-04-02T14:39:42.068Z,5.70
2023-04-02T14:42:14.163Z,5.78
2023-04-02T14:44:46.489Z,8.65
2023-04-02T14:47:18.928Z,5.68
2023-04-02T14:49:51.501Z,8.45
2023-04-02T14:52:22.042Z,6.30
2023-04-02T14:54:52.377Z,6.82
2023-04-02T14:57:22.837Z,6.40
2023-04-02T14:59:59.967Z,6.10
2023-04-02T15:02:36.097Z,8.77
2023-04-02T15:05:11.567Z,5.82
2023-04-02T15:07:42.718Z,6.13
2023-04-02T15:10:19.998Z,7.32
2023-04-02T15:12:48.527Z,7.38
2023-04-02T15:15:33.059Z,6.65
2023-04-02T15:18:11.022Z,8.00
2023-04-02T15:20:49.539Z,7.93
2023-04-02T15:23:29.313Z,6.35
2023-04-02T15:26:05.671Z,7.90
2023-04-02T15:28:37.738Z,8.23
2023-04-02T15:31:11.693Z,7.90
2023-04-02T15:33:44.414Z,6.93
2023-04-02T15:36:41.490Z,6.68
2023-04-02T15:39:29.372Z,8.77
2023-04-02T15:42:07.442Z,8.63
2023-04-02T15:44:36.643Z,7.40
2023-04-02T15:47:15.441Z,7.90
2023-04-02T15:49:46.485Z,8.60
2023-04-02T15:52:22.269Z,9.75
2023-04-02T15:55:02.086Z,11.13
2023-04-02T15:57:42.025Z,8.10
2023-04-02T16:00:23.376Z,7.80
2023-04-02T16:03:14.038Z,9.57
2023-04-02T16:05:48.808Z,9.27
2023-04-02T16:08:45.336Z,10.65
2023-04-02T16:11:13.450Z,8.75
2023-04-02T16:13:41.207Z,7.72
2023-04-02T16:16:12.783Z,8.38
2023-04-02T16:18:50.025Z,9.98
2023-04-02T16:21:20.972Z,7.85
2023-04-02T16:23:49.691Z,10.13
2023-04-02T16:26:33.176Z,9.55
2023-04-02T16:29:28.377Z,9.02
2023-04-02T16:32:02.112Z,10.18
2023-04-02T16:34:39.363Z,8.95
2023-04-02T16:37:17.635Z,8.77
2023-04-02T16:39:52.721Z,10.25
2023-04-02T16:42:32.466Z,11.05
2023-04-02T16:45:09.222Z,9.13
2023-04-02T16:48:06.237Z,9.23
2023-04-02T16:50:44.783Z,9.18
2023-04-02T16:53:25.979Z,7.88
2023-04-02T16:56:06.059Z,10.52
2023-04-02T16:58:45.791Z,7.25
2023-04-02T17:01:21.511Z,6.90
2023-04-02T17:04:16.657Z,8.35
2023-04-02T17:06:48.165Z,5.30
2023-04-02T17:09:16.963Z,6.95
2023-04-02T17:11:49.665Z,5.45
2023-04-02T17:14:28.515Z,5.40
2023-04-02T17:17:00.597Z,6.22
2023-04-02T17:19:29.729Z,4.55
2023-04-02T17:22:01.313Z,5.55
2023-04-02T17:24:31.896Z,5.68
2023-04-02T17:27:06.107Z,6.03
2023-04-02T17:29:37.509Z,6.38
2023-04-02T17:32:12.164Z,7.05
2023-04-02T17:34:39.119Z,3.50
2023-04-02T17:37:18.459Z,4.32
2023-04-02T17:39:51.604Z,8.77
2023-04-02T17:42:31.378Z,3.80
2023-04-02T17:45:08.883Z,4.70
2023-04-02T17:47:45.814Z,4.38
2023-04-02T17:50:40.771Z,4.45
2023-04-02T17:53:15.466Z,5.72
2023-04-02T17:55:54.265Z,4.93
2023-04-02T17:58:50.173Z,4.38
2023-04-02T18:01:24.915Z,4.80
2023-04-02T18:04:13.048Z,4.47
2023-04-02T18:06:43.651Z,8.52
2023-04-02T18:09:29.298Z,6.20
2023-04-02T18:12:10.127Z,5.55
2023-04-02T18:15:01.272Z,5.28
2023-04-02T18:17:37.786Z,7.18
2023-04-02T18:20:17.117Z,6.47
2023-04-02T18:22:52.161Z,7.50
2023-04-02T18:25:32.624Z,6.78
2023-04-02T18:28:15.960Z,7.30
2023-04-02T18:30:54.371Z,8.57
2023-04-02T18:33:48.556Z,8.20
2023-04-02T18:36:22.820Z,6.97
2023-04-02T18:38:57.635Z,9.10
2023-04-02T18:41:37.868Z,8.07
2023-04-02T18:44:16.637Z,7.60
2023-04-02T18:46:49.973Z,8.68
2023-04-02T18:49:28.915Z,8.73
2023-04-02T18:52:00.148Z,8.75
2023-04-02T18:54:32.083Z,7.82
2023-04-02T18:56:59.999Z,8.50
2023-04-02T18:59:37.894Z,8.80
2023-04-02T19:02:25.330Z,8.80
2023-04-02T19:04:59.252Z,9.70
2023-04-02T19:07:29.165Z,11.52
2023-04-02T19:09:59.465Z,11.88
2023-04-02T19:12:26.389Z,9.98
2023-04-02T19:14:53.536Z,8.82
2023-04-02T19:17:31.106Z,10.75
2023-04-02T19:20:06.436Z,9.52
2023-04-02T19:22:40.563Z,9.45
2023-04-02T19:25:26.678Z,10.60
2023-04-02T19:28:06.903Z,9.45
2023-04-02T19:31:24.943Z,8.55
2023-04-02T19:34:00.721Z,9.95
2023-04-02T19:36:43.999Z,11.02
2023-04-02T19:39:47.371Z,8.55
2023-04-02T19:42:24.419Z,9.07
2023-04-02T19:44:53.399Z,11.48
2023-04-02T19:47:21.104Z,9.65
2023-04-02T19:49:49.461Z,11.55
2023-04-02T19:52:16.746Z,11.88
2023-04-02T19:54:43.647Z,12.40
2023-04-02T19:57:14.242Z,14.98
2023-04-02T19:59:41.393Z,14.90
2023-04-02T20:02:10.004Z,16.63
2023-04-02T20:04:37.277Z,19.55
2023-04-02T20:07:05.757Z,16.40
2023-04-02T20:09:32.741Z,15.10
2023-04-02T20:12:00.128Z,16.35
2023-04-02T20:14:27.104Z,13.80
2023-04-02T20:16:54.088Z,13.20
2023-04-02T20:19:21.111Z,16.90
2023-04-02T20:21:48.128Z,13.80
2023-04-02T20:24:16.572Z,15.02
2023-04-02T20:26:43.760Z,17.25
2023-04-02T20:29:10.746Z,17.65
2023-04-02T20:31:37.702Z,17.30
2023-04-02T20:34:04.893Z,18.10
2023-04-02T20:36:32.224Z,17.85
2023-04-02T20:38:59.145Z,17.40
2023-04-02T20:41:27.613Z,19.65
2023-04-02T20:43:54.688Z,17.50
2023-04-02T20:46:21.676Z,20.02
2023-04-02T20:48:48.661Z,18.88
2023-04-02T20:51:16.209Z,16.25
2023-04-02T20:53:43.316Z,18.40
2023-04-02T20:56:12.486Z,19.60
2023-04-02T20:58:41.547Z,18.08
2023-04-02T21:01:10.300Z,19.42
2023-04-02T21:03:37.495Z,16.25
2023-04-02T21:06:05.900Z,16.00
2023-04-02T21:08:32.856Z,19.50
2023-04-02T21:11:04.648Z,27.02
2023-04-02T21:13:32.654Z,23.92
2023-04-02T21:16:01.121Z,24.52
2023-04-02T21:18:28.188Z,25.05
2023-04-02T21:21:00.112Z,22.08
2023-04-02T21:23:27.317Z,27.08
2023-04-02T21:25:58.360Z,30.67
2023-04-02T21:28:26.153Z,23.55
2023-04-02T21:31:01.043Z,21.15
2023-04-02T21:33:29.625Z,18.63
2023-04-02T21:35:56.683Z,18.55
2023-04-02T21:38:23.583Z,22.08
2023-04-02T21:40:50.504Z,24.60
2023-04-02T21:43:17.468Z,25.98
2023-04-02T21:45:44.391Z,23.50
2023-04-02T21:48:11.362Z,24.40
2023-04-02T21:50:39.599Z,21.63
2023-04-02T21:53:06.562Z,23.05
2023-04-02T21:55:33.473Z,21.15
2023-04-02T21:58:00.739Z,21.17
2023-04-02T22:00:27.694Z,23.75
2023-04-02T22:02:54.728Z,23.05
2023-04-02T22:05:21.683Z,19.13
2023-04-02T22:07:50.146Z,19.50
2023-04-02T22:10:17.333Z,20.83
2023-04-02T22:12:44.240Z,18.90
2023-04-02T22:15:11.740Z,21.10
2023-04-02T22:17:38.695Z,21.60
2023-04-02T22:20:06.598Z,24.77
2023-04-02T22:22:33.510Z,24.42
2023-04-02T22:25:01.800Z,25.10
2023-04-02T22:27:28.741Z,22.13
2023-04-02T22:29:55.740Z,24.45
2023-04-02T22:32:22.701Z,25.92
2023-04-02T22:34:49.618Z,24.00
2023-04-02T22:37:16.515Z,25.15
2023-04-02T22:39:43.485Z,25.25
2023-04-02T22:42:11.738Z,24.23
2023-04-02T22:44:38.619Z,25.08
2023-04-02T22:47:05.609Z,23.88
2023-04-02T22:49:32.531Z,23.30
2023-04-02T22:51:59.456Z,23.65
2023-04-02T22:54:26.471Z,22.88
2023-04-02T22:56:53.452Z,24.92
2023-04-02T22:59:21.803Z,23.55
2023-04-02T23:01:49.033Z,22.25
2023-04-02T23:04:16.028Z,22.42
2023-04-02T23:06:43.036Z,22.42
2023-04-02T23:09:10.425Z,20.27
2023-04-02T23:11:37.523Z,21.58
2023-04-02T23:14:04.569Z,23.13
2023-04-02T23:16:33.030Z,22.40
2023-04-02T23:19:01.423Z,24.35
2023-04-02T23:21:28.398Z,25.85
2023-04-02T23:23:55.481Z,23.98
2023-04-02T23:26:24.540Z,26.08
2023-04-02T23:28:51.654Z,22.58
2023-04-02T23:31:20.590Z,23.15
2023-04-02T23:33:49.413Z,24.00
2023-04-02T23:36:20.873Z,22.63
2023-04-02T23:38:48.044Z,22.42
2023-04-02T23:41:16.244Z,21.00
2023-04-02T23:43:43.632Z,21.48
2023-04-02T23:46:10.871Z,21.98
2023-04-02T23:48:38.077Z,20.65
2023-04-02T23:51:06.803Z,17.38
2023-04-02T23:53:34.548Z,17.88
2023-04-02T23:56:01.603Z,17.90
2023-04-02T23:58:29.048Z,16.52
